Terminal Aerodrome Forecast
Issued by NWS

Home | Current Version | Previous Version | Text Only | Print | Product List | Glossary On
Versions: 1 2 3 4 5 6 7 8 9 10 11 12 13 14 15 16 17 18 19 20 21 22
000
FTUS43 KAPX 231100
TAFMBL
TAF
KMBL 231120Z 2312/2412 00000KT P6SM BKN100
     FM231600 36005KT P6SM SCT040
     FM240000 00000KT P6SM SKC
     FM240900 00000KT 3SM BR SKC
      AMD LTD TO CLD VIS AND WIND=

USA.gov is the U.S. government's official web portal to all federal, state and local government web resources and services.